Time;durP1;ratioP1;P1;durP2;ratioP2;P2;SDS_P1;SDS_P2;PMS_P1;PMS_P2;Temp;Humidity;BMP_temperature;BMP_pressure;BME280_temperature;BME280_humidity;BME280_pressure;Samples;Min_cycle;Max_cycle;Signal;HPM_P1;HPM_P2
2023/03/23 00:00:41;;;;;;;;;;;19.00;83.60;;;;;;5120792;28;20251;-51
2023/03/23 00:03:07;;;;;;;;;;;19.00;84.20;;;;;;5120764;28;19907;-53
2023/03/23 00:05:32;;;;;;;;;;;19.00;83.80;;;;;;5120739;28;19908;-53
2023/03/23 00:08:01;;;;;;;;;;;18.90;83.80;;;;;;5116765;28;20367;-54
2023/03/23 00:10:27;;;;;;;;;;;18.90;83.90;;;;;;5117448;28;19914;-54
2023/03/23 00:12:52;;;;;;;;;;;18.90;84.00;;;;;;5117438;28;19912;-54
2023/03/23 00:15:18;;;;;;;;;;;18.90;84.00;;;;;;5099143;28;19919;-55
2023/03/23 00:17:43;;;;;;;;;;;18.80;84.00;;;;;;5116861;28;20448;-54
2023/03/23 00:20:11;;;;;;;;;;;18.80;84.10;;;;;;5117235;28;19908;-53
2023/03/23 00:22:37;;;;;;;;;;;18.80;84.10;;;;;;5116932;28;20265;-53
2023/03/23 00:25:03;;;;;;;;;;;18.80;84.10;;;;;;5116861;28;19992;-52
2023/03/23 00:27:29;;;;;;;;;;;18.80;84.10;;;;;;5116183;28;19915;-55
2023/03/23 00:29:55;;;;;;;;;;;18.80;84.20;;;;;;5116896;28;20002;-51
2023/03/23 00:32:26;;;;;;;;;;;18.80;84.20;;;;;;5116915;28;20340;-51
2023/03/23 00:34:52;;;;;;;;;;;18.70;84.30;;;;;;5116742;28;19912;-55
2023/03/23 00:37:19;;;;;;;;;;;18.70;84.30;;;;;;5116979;28;19908;-55
2023/03/23 00:39:46;;;;;;;;;;;18.70;84.40;;;;;;5115563;28;20006;-54
2023/03/23 00:42:13;;;;;;;;;;;18.70;84.40;;;;;;5116915;28;20319;-55
2023/03/23 00:44:39;;;;;;;;;;;18.70;84.50;;;;;;5116766;28;19998;-55
2023/03/23 00:47:06;;;;;;;;;;;18.60;84.50;;;;;;5115130;28;20259;-54
2023/03/23 00:49:34;;;;;;;;;;;18.70;84.60;;;;;;5116429;28;20402;-56
2023/03/23 00:52:00;;;;;;;;;;;18.70;84.60;;;;;;5116547;28;19916;-55
2023/03/23 00:54:26;;;;;;;;;;;18.60;84.60;;;;;;5116639;28;19911;-54
2023/03/23 00:56:51;;;;;;;;;;;18.60;84.60;;;;;;5115469;28;20290;-55
2023/03/23 00:59:17;;;;;;;;;;;18.60;84.70;;;;;;5116246;28;19961;-53
2023/03/23 01:01:43;;;;;;;;;;;18.60;84.70;;;;;;5116394;28;19965;-54
2023/03/23 01:04:11;;;;;;;;;;;18.60;84.70;;;;;;5116400;28;20271;-51
2023/03/23 01:06:39;;;;;;;;;;;18.50;84.70;;;;;;5115029;28;20418;-53
2023/03/23 01:09:09;;;;;;;;;;;18.60;84.80;;;;;;5116362;28;19908;-53
2023/03/23 01:11:34;;;;;;;;;;;18.50;84.80;;;;;;5115939;28;20362;-51
2023/03/23 01:14:00;;;;;;;;;;;18.50;84.80;;;;;;5116605;28;19918;-53
2023/03/23 01:16:26;;;;;;;;;;;18.50;84.80;;;;;;5116209;28;19908;-55
2023/03/23 01:18:51;;;;;;;;;;;18.50;84.90;;;;;;5115201;28;20309;-53
2023/03/23 01:21:18;;;;;;;;;;;18.50;84.90;;;;;;5116134;28;19958;-55
2023/03/23 01:23:44;;;;;;;;;;;18.40;84.80;;;;;;5115817;28;19953;-53
2023/03/23 01:26:11;;;;;;;;;;;18.40;85.40;;;;;;5115719;28;19931;-53
2023/03/23 01:28:37;;;;;;;;;;;18.50;85.00;;;;;;5114878;28;20514;-54
2023/03/23 01:31:04;;;;;;;;;;;18.40;84.90;;;;;;5116002;28;19950;-55
2023/03/23 01:33:30;;;;;;;;;;;18.40;85.00;;;;;;5115822;28;19912;-55
2023/03/23 01:35:56;;;;;;;;;;;18.40;85.00;;;;;;5115735;28;20366;-53
2023/03/23 01:38:21;;;;;;;;;;;18.40;85.00;;;;;;5114626;28;19973;-51
2023/03/23 01:40:47;;;;;;;;;;;18.40;85.00;;;;;;5115416;28;19955;-54
2023/03/23 01:43:13;;;;;;;;;;;18.40;85.10;;;;;;5115444;28;20351;-55
2023/03/23 01:45:39;;;;;;;;;;;18.30;85.10;;;;;;5114546;28;19907;-55
2023/03/23 01:48:08;;;;;;;;;;;18.30;85.10;;;;;;5115497;28;19915;-53
2023/03/23 01:50:37;;;;;;;;;;;18.30;85.10;;;;;;5114808;28;19911;-54
2023/03/23 01:53:06;;;;;;;;;;;18.30;85.10;;;;;;5115356;28;20354;-54
2023/03/23 01:55:31;;;;;;;;;;;18.30;85.20;;;;;;5115451;28;20251;-52
2023/03/23 01:57:57;;;;;;;;;;;18.30;85.20;;;;;;5114534;28;19919;-54
2023/03/23 02:00:24;;;;;;;;;;;18.30;85.20;;;;;;5115211;28;19915;-51
2023/03/23 02:02:52;;;;;;;;;;;18.30;85.30;;;;;;5115261;28;20385;-53
2023/03/23 02:05:28;;;;;;;;;;;18.30;85.30;;;;;;5114967;28;19908;-52
2023/03/23 02:07:54;;;;;;;;;;;18.30;85.40;;;;;;5114131;28;19912;-55
2023/03/23 02:10:19;;;;;;;;;;;18.30;85.40;;;;;;5114957;28;19915;-50
2023/03/23 02:12:45;;;;;;;;;;;18.20;85.40;;;;;;5115059;28;19916;-53
2023/03/23 02:15:10;;;;;;;;;;;18.20;85.40;;;;;;5114839;28;19919;-55
2023/03/23 02:17:52;;;;;;;;;;;18.20;85.30;;;;;;5114185;28;20014;-53
2023/03/23 02:20:18;;;;;;;;;;;18.20;85.40;;;;;;5115380;28;19930;-54
2023/03/23 02:22:57;;;;;;;;;;;18.20;85.50;;;;;;5114981;28;20351;-53
2023/03/23 02:25:52;;;;;;;;;;;18.20;85.50;;;;;;5115130;28;19970;-51
2023/03/23 02:28:44;;;;;;;;;;;18.20;85.50;;;;;;5114415;28;19919;-52
2023/03/23 02:31:18;;;;;;;;;;;18.20;85.50;;;;;;5076203;28;20005;-54
2023/03/23 02:33:55;;;;;;;;;;;18.20;85.50;;;;;;5094388;28;20476;-53
2023/03/23 02:36:31;;;;;;;;;;;18.20;85.50;;;;;;5094618;28;19969;-50
2023/03/23 02:39:00;;;;;;;;;;;18.20;85.60;;;;;;5107155;28;20389;-52
2023/03/23 02:41:28;;;;;;;;;;;18.10;85.50;;;;;;5114274;28;19919;-55
2023/03/23 02:43:54;;;;;;;;;;;18.10;85.60;;;;;;5114732;28;19977;-49
2023/03/23 02:46:21;;;;;;;;;;;18.10;85.60;;;;;;5113401;28;19912;-54
2023/03/23 02:48:48;;;;;;;;;;;18.20;86.10;;;;;;5114594;28;19911;-54
2023/03/23 02:51:14;;;;;;;;;;;18.10;85.70;;;;;;5114478;28;19998;-53
2023/03/23 02:53:41;;;;;;;;;;;18.10;85.70;;;;;;5114558;28;19912;-55
2023/03/23 02:56:08;;;;;;;;;;;18.10;85.80;;;;;;5113590;28;19922;-53
2023/03/23 02:58:34;;;;;;;;;;;18.00;85.70;;;;;;5114505;28;19908;-54
2023/03/23 03:01:13;;;;;;;;;;;18.10;85.80;;;;;;5114469;28;19907;-54
2023/03/23 03:03:39;;;;;;;;;;;18.10;85.80;;;;;;5114261;28;19908;-52
2023/03/23 03:06:10;;;;;;;;;;;18.10;85.80;;;;;;5113478;28;20346;-54
2023/03/23 03:08:54;;;;;;;;;;;18.00;86.20;;;;;;5111591;28;19912;-50
2023/03/23 03:11:25;;;;;;;;;;;18.10;85.80;;;;;;5111211;28;19980;-53
2023/03/23 03:13:55;;;;;;;;;;;18.00;85.80;;;;;;5113483;28;19968;-53
2023/03/23 03:16:20;;;;;;;;;;;18.00;85.90;;;;;;5113209;28;19952;-52
2023/03/23 03:18:52;;;;;;;;;;;18.00;85.90;;;;;;5114011;28;20028;-55
2023/03/23 03:21:20;;;;;;;;;;;18.00;85.90;;;;;;5114624;28;19908;-51
2023/03/23 03:23:46;;;;;;;;;;;18.00;85.90;;;;;;5114316;28;19930;-50
2023/03/23 03:26:16;;;;;;;;;;;18.00;85.80;;;;;;5114247;28;19939;-50
2023/03/23 03:28:43;;;;;;;;;;;18.00;85.80;;;;;;5113611;28;19912;-54
2023/03/23 03:31:09;;;;;;;;;;;18.00;85.90;;;;;;5114252;28;19943;-52
2023/03/23 03:33:34;;;;;;;;;;;18.00;85.80;;;;;;5113834;28;20036;-53
2023/03/23 03:36:02;;;;;;;;;;;18.00;85.90;;;;;;5114211;28;19908;-52
2023/03/23 03:38:27;;;;;;;;;;;18.00;85.80;;;;;;5113104;28;19911;-53
2023/03/23 03:40:54;;;;;;;;;;;18.00;85.90;;;;;;5114091;28;20258;-53
2023/03/23 03:43:19;;;;;;;;;;;18.00;85.90;;;;;;5115564;28;19990;-52
2023/03/23 03:45:45;;;;;;;;;;;18.00;85.90;;;;;;5116652;28;20015;-54
2023/03/23 03:48:11;;;;;;;;;;;17.90;85.90;;;;;;5117619;28;19943;-52
2023/03/23 03:50:36;;;;;;;;;;;18.00;85.90;;;;;;5117625;28;20385;-52
2023/03/23 03:53:02;;;;;;;;;;;17.90;85.90;;;;;;5117690;28;19912;-53
2023/03/23 03:55:28;;;;;;;;;;;18.00;86.00;;;;;;5116876;28;19915;-54
2023/03/23 03:57:57;;;;;;;;;;;18.00;86.00;;;;;;5117516;28;19914;-54
2023/03/23 04:00:23;;;;;;;;;;;18.00;85.90;;;;;;5117356;28;20274;-51
2023/03/23 04:02:53;;;;;;;;;;;17.90;85.90;;;;;;5117581;28;19908;-52
2023/03/23 04:05:20;;;;;;;;;;;17.90;86.00;;;;;;5117894;28;19911;-53
2023/03/23 04:07:49;;;;;;;;;;;17.90;86.00;;;;;;5116525;28;20363;-53
2023/03/23 04:10:15;;;;;;;;;;;17.90;86.00;;;;;;5117166;28;19915;-51
2023/03/23 04:12:40;;;;;;;;;;;17.90;85.90;;;;;;5117401;28;19912;-55
2023/03/23 04:15:07;;;;;;;;;;;17.90;86.00;;;;;;5117064;28;20384;-53
2023/03/23 04:17:33;;;;;;;;;;;17.90;86.00;;;;;;5116485;28;20273;-53
2023/03/23 04:20:06;;;;;;;;;;;17.90;86.00;;;;;;5117370;28;19912;-52
2023/03/23 04:22:32;;;;;;;;;;;17.90;85.90;;;;;;5117075;28;19948;-54
2023/03/23 04:24:59;;;;;;;;;;;17.90;86.50;;;;;;5117156;28;19908;-53
2023/03/23 04:27:27;;;;;;;;;;;17.90;86.00;;;;;;5116112;28;19915;-50
2023/03/23 04:29:54;;;;;;;;;;;17.90;86.00;;;;;;5116911;28;19912;-52
2023/03/23 04:32:20;;;;;;;;;;;17.90;86.00;;;;;;5116927;28;19920;-51
2023/03/23 04:34:46;;;;;;;;;;;17.90;86.00;;;;;;5116833;28;19956;-49
2023/03/23 04:37:13;;;;;;;;;;;17.90;86.00;;;;;;5115850;28;19914;-52
2023/03/23 04:39:39;;;;;;;;;;;17.90;86.00;;;;;;5116939;28;19932;-54
2023/03/23 04:42:05;;;;;;;;;;;17.90;86.00;;;;;;5117058;28;20258;-54
2023/03/23 04:44:32;;;;;;;;;;;17.90;86.10;;;;;;5115778;28;22268;-52
2023/03/23 04:47:01;;;;;;;;;;;17.90;86.00;;;;;;5115793;28;19957;-52
2023/03/23 04:49:26;;;;;;;;;;;17.90;86.10;;;;;;5116722;28;20010;-51
2023/03/23 04:51:52;;;;;;;;;;;17.90;86.10;;;;;;5116593;28;19969;-51
2023/03/23 04:54:17;;;;;;;;;;;17.80;86.10;;;;;;5115756;28;19912;-54
2023/03/23 04:56:43;;;;;;;;;;;17.80;86.10;;;;;;5115136;28;19916;-55
2023/03/23 04:59:08;;;;;;;;;;;17.80;86.00;;;;;;5116202;28;19915;-54
2023/03/23 05:01:37;;;;;;;;;;;17.80;86.00;;;;;;5115546;28;19912;-52
2023/03/23 05:04:03;;;;;;;;;;;17.80;86.00;;;;;;5116485;28;19908;-52
2023/03/23 05:06:28;;;;;;;;;;;17.80;86.10;;;;;;5116716;28;20002;-53
2023/03/23 05:08:53;;;;;;;;;;;17.80;86.10;;;;;;5116352;28;19908;-53
2023/03/23 05:11:19;;;;;;;;;;;17.80;86.10;;;;;;5114746;28;20372;-53
2023/03/23 05:13:44;;;;;;;;;;;17.80;86.10;;;;;;5116121;28;19912;-54
2023/03/23 05:16:10;;;;;;;;;;;17.80;86.00;;;;;;5115911;28;20320;-55
2023/03/23 05:18:35;;;;;;;;;;;17.80;86.10;;;;;;5113870;28;20330;-52
2023/03/23 05:21:02;;;;;;;;;;;17.80;86.00;;;;;;5114466;28;19914;-52
2023/03/23 05:23:30;;;;;;;;;;;17.80;86.10;;;;;;5114151;28;19920;-55
2023/03/23 05:26:00;;;;;;;;;;;17.80;86.00;;;;;;5115674;28;19908;-54
2023/03/23 05:28:30;;;;;;;;;;;17.80;86.00;;;;;;5097813;28;19961;-53
2023/03/23 05:30:56;;;;;;;;;;;17.80;86.10;;;;;;5115945;28;19907;-53
2023/03/23 05:33:21;;;;;;;;;;;17.80;86.10;;;;;;5114411;28;20251;-55
2023/03/23 05:35:47;;;;;;;;;;;17.80;86.00;;;;;;5115419;28;19916;-53
2023/03/23 05:38:14;;;;;;;;;;;17.80;86.00;;;;;;5115455;28;19915;-49
2023/03/23 05:40:41;;;;;;;;;;;17.80;86.00;;;;;;5115015;28;19923;-53
2023/03/23 05:43:07;;;;;;;;;;;17.80;86.10;;;;;;5114464;28;20088;-52
2023/03/23 05:45:33;;;;;;;;;;;17.80;86.10;;;;;;5114128;28;20389;-53
2023/03/23 05:47:59;;;;;;;;;;;17.80;86.00;;;;;;5115838;28;20290;-54
2023/03/23 05:50:25;;;;;;;;;;;17.80;86.00;;;;;;5115554;28;19908;-53
2023/03/23 05:52:51;;;;;;;;;;;17.80;86.00;;;;;;5114634;28;20376;-52
2023/03/23 05:55:16;;;;;;;;;;;17.80;86.00;;;;;;5094867;28;20317;-53
2023/03/23 05:57:42;;;;;;;;;;;17.80;86.00;;;;;;5094886;28;19951;-53
2023/03/23 06:00:14;;;;;;;;;;;17.80;86.10;;;;;;5094687;28;20001;-52
2023/03/23 06:02:43;;;;;;;;;;;17.80;86.00;;;;;;5094599;28;19909;-54
2023/03/23 06:05:09;;;;;;;;;;;17.80;86.10;;;;;;5108948;28;19912;-53
2023/03/23 06:07:35;;;;;;;;;;;17.70;86.10;;;;;;5114857;28;19914;-53
2023/03/23 06:10:01;;;;;;;;;;;17.80;86.10;;;;;;5114711;28;20006;-52
2023/03/23 06:12:26;;;;;;;;;;;17.70;86.00;;;;;;5114919;28;19922;-55
2023/03/23 06:14:52;;;;;;;;;;;17.80;86.00;;;;;;5114202;28;19955;-54
2023/03/23 06:17:17;;;;;;;;;;;17.80;86.00;;;;;;5115124;28;19943;-53
2023/03/23 06:19:45;;;;;;;;;;;17.80;86.00;;;;;;5114474;28;20236;-53
2023/03/23 06:22:11;;;;;;;;;;;17.80;86.00;;;;;;5114646;28;19908;-55
2023/03/23 06:24:37;;;;;;;;;;;17.80;86.10;;;;;;5113870;28;20010;-53
2023/03/23 06:27:03;;;;;;;;;;;17.70;86.00;;;;;;5113859;28;20370;-53
2023/03/23 06:29:29;;;;;;;;;;;17.80;86.10;;;;;;5114772;28;19918;-55
2023/03/23 06:31:56;;;;;;;;;;;17.70;86.00;;;;;;5114648;28;19911;-54
2023/03/23 06:34:23;;;;;;;;;;;17.80;86.00;;;;;;5112516;28;19911;-54
2023/03/23 06:36:48;;;;;;;;;;;17.70;86.10;;;;;;5114350;28;19908;-53
2023/03/23 06:39:13;;;;;;;;;;;17.70;86.00;;;;;;5114259;28;20011;-51
2023/03/23 06:41:39;;;;;;;;;;;17.80;86.10;;;;;;5114374;28;19920;-54
2023/03/23 06:44:06;;;;;;;;;;;17.70;86.00;;;;;;5113269;28;19967;-52
2023/03/23 06:46:31;;;;;;;;;;;17.80;86.00;;;;;;5113496;28;20358;-55
2023/03/23 06:48:57;;;;;;;;;;;17.70;86.10;;;;;;5114708;28;19908;-56
2023/03/23 06:51:23;;;;;;;;;;;17.80;86.10;;;;;;5113827;28;19908;-53
2023/03/23 06:53:49;;;;;;;;;;;17.70;86.00;;;;;;5113036;28;20002;-52
2023/03/23 06:56:14;;;;;;;;;;;17.70;86.00;;;;;;5113809;28;19915;-55
2023/03/23 06:58:41;;;;;;;;;;;17.70;86.00;;;;;;5114306;28;19909;-53
2023/03/23 07:01:09;;;;;;;;;;;17.70;86.10;;;;;;5113894;28;19915;-55
2023/03/23 07:03:35;;;;;;;;;;;17.70;86.00;;;;;;5112946;28;19912;-54
2023/03/23 07:06:00;;;;;;;;;;;17.70;86.10;;;;;;5114483;28;19907;-54
2023/03/23 07:08:26;;;;;;;;;;;17.70;86.10;;;;;;5113891;28;19912;-55
2023/03/23 07:10:52;;;;;;;;;;;17.70;86.10;;;;;;5113765;28;19979;-55
2023/03/23 07:13:18;;;;;;;;;;;17.70;86.00;;;;;;5113021;28;20029;-54
2023/03/23 07:15:43;;;;;;;;;;;17.70;86.00;;;;;;5112297;28;19939;-52
2023/03/23 07:18:09;;;;;;;;;;;17.70;86.10;;;;;;5116889;28;19922;-53
2023/03/23 07:20:35;;;;;;;;;;;17.70;86.00;;;;;;5117133;28;19919;-53
2023/03/23 07:23:02;;;;;;;;;;;17.70;86.10;;;;;;5117858;28;19953;-55
2023/03/23 07:25:27;;;;;;;;;;;17.70;86.10;;;;;;5117772;28;20373;-50
2023/03/23 07:27:53;;;;;;;;;;;17.70;86.10;;;;;;5117500;28;19915;-54
2023/03/23 07:30:18;;;;;;;;;;;17.70;86.10;;;;;;5116620;28;20395;-55
2023/03/23 07:32:44;;;;;;;;;;;17.70;86.10;;;;;;5116407;28;19911;-55
2023/03/23 07:35:10;;;;;;;;;;;17.70;86.10;;;;;;5117451;28;19911;-53
2023/03/23 07:37:35;;;;;;;;;;;17.70;86.10;;;;;;5117425;28;19908;-53
2023/03/23 07:40:14;;;;;;;;;;;17.70;86.10;;;;;;5117821;28;19907;-52
2023/03/23 07:42:40;;;;;;;;;;;17.70;86.10;;;;;;5116396;28;20397;-55
2023/03/23 07:45:06;;;;;;;;;;;17.70;86.10;;;;;;5117650;28;19908;-55
2023/03/23 07:47:32;;;;;;;;;;;17.70;86.10;;;;;;5117218;28;19991;-53
2023/03/23 07:49:57;;;;;;;;;;;17.70;86.10;;;;;;5117368;28;20032;-55
2023/03/23 07:52:23;;;;;;;;;;;17.70;86.10;;;;;;5116336;28;19919;-52
2023/03/23 07:54:49;;;;;;;;;;;17.70;86.20;;;;;;5117408;28;20018;-54
2023/03/23 07:57:14;;;;;;;;;;;17.70;86.10;;;;;;5117442;28;19908;-53
2023/03/23 07:59:40;;;;;;;;;;;17.70;86.20;;;;;;5099207;28;20002;-52
2023/03/23 08:02:07;;;;;;;;;;;17.70;86.20;;;;;;5116788;28;19912;-54
2023/03/23 08:04:36;;;;;;;;;;;17.70;86.20;;;;;;5117359;28;19914;-55
2023/03/23 08:07:03;;;;;;;;;;;17.70;86.30;;;;;;5117241;28;19907;-54
2023/03/23 08:09:28;;;;;;;;;;;17.70;86.20;;;;;;5117218;28;20377;-56
2023/03/23 08:11:53;;;;;;;;;;;17.70;86.20;;;;;;5116277;28;19912;-54
2023/03/23 08:14:19;;;;;;;;;;;17.70;86.30;;;;;;5117259;28;20342;-51
2023/03/23 08:16:45;;;;;;;;;;;17.70;86.20;;;;;;5117058;28;19915;-54
2023/03/23 08:19:11;;;;;;;;;;;17.70;86.30;;;;;;5116647;28;19908;-52
2023/03/23 08:21:36;;;;;;;;;;;17.70;86.30;;;;;;5116789;28;19918;-53
2023/03/23 08:24:02;;;;;;;;;;;17.70;86.30;;;;;;5116095;28;20230;-52
2023/03/23 08:26:27;;;;;;;;;;;17.70;86.30;;;;;;5116508;28;19908;-50
2023/03/23 08:28:53;;;;;;;;;;;17.70;86.20;;;;;;5115977;28;19946;-56
2023/03/23 08:31:19;;;;;;;;;;;17.70;86.20;;;;;;5117285;28;19908;-55
2023/03/23 08:33:45;;;;;;;;;;;17.70;86.30;;;;;;5115324;28;19916;-54
2023/03/23 08:36:10;;;;;;;;;;;17.70;86.30;;;;;;5116576;28;19919;-54
2023/03/23 08:38:37;;;;;;;;;;;17.70;86.30;;;;;;5116374;28;20278;-53
2023/03/23 08:41:04;;;;;;;;;;;17.70;86.40;;;;;;5115498;28;19999;-55
2023/03/23 08:43:30;;;;;;;;;;;17.70;86.40;;;;;;5116261;28;19933;-51
2023/03/23 08:45:55;;;;;;;;;;;17.70;86.40;;;;;;5116236;28;19908;-54
2023/03/23 08:48:22;;;;;;;;;;;17.70;86.50;;;;;;5116321;28;19908;-54
2023/03/23 08:50:48;;;;;;;;;;;17.70;86.50;;;;;;5115668;28;19915;-55
2023/03/23 08:53:13;;;;;;;;;;;17.70;86.50;;;;;;5116383;28;20365;-53
2023/03/23 08:55:39;;;;;;;;;;;17.70;86.50;;;;;;5116318;28;19912;-53
2023/03/23 08:58:05;;;;;;;;;;;17.70;86.40;;;;;;5116184;28;19908;-56
2023/03/23 09:00:32;;;;;;;;;;;17.70;86.50;;;;;;5115433;28;19912;-53
2023/03/23 09:02:58;;;;;;;;;;;17.70;86.40;;;;;;5116345;28;19934;-52
2023/03/23 09:05:24;;;;;;;;;;;17.70;86.50;;;;;;5115919;28;19907;-53
2023/03/23 09:07:50;;;;;;;;;;;17.70;86.50;;;;;;5116076;28;19961;-53
2023/03/23 09:10:16;;;;;;;;;;;17.70;86.50;;;;;;5114905;28;20429;-54
2023/03/23 09:12:42;;;;;;;;;;;17.70;86.50;;;;;;5115638;28;19912;-54
2023/03/23 09:15:09;;;;;;;;;;;17.70;86.50;;;;;;5115658;28;19944;-53
2023/03/23 09:17:36;;;;;;;;;;;17.70;86.50;;;;;;5097781;28;19947;-54
2023/03/23 09:20:04;;;;;;;;;;;17.70;86.40;;;;;;5115310;28;19908;-52
2023/03/23 09:22:29;;;;;;;;;;;17.70;86.50;;;;;;5095212;28;19909;-51
2023/03/23 09:24:55;;;;;;;;;;;17.70;86.50;;;;;;5095487;28;19914;-52
2023/03/23 09:27:20;;;;;;;;;;;17.70;86.20;;;;;;5095026;28;19912;-55
2023/03/23 09:29:48;;;;;;;;;;;17.70;86.30;;;;;;5094974;28;19912;-50
2023/03/23 09:32:14;;;;;;;;;;;17.70;86.50;;;;;;5110742;28;19916;-53
2023/03/23 09:34:40;;;;;;;;;;;17.70;86.30;;;;;;5115427;28;19912;-53
2023/03/23 09:37:06;;;;;;;;;;;17.70;86.30;;;;;;5115506;28;19930;-53
2023/03/23 09:39:31;;;;;;;;;;;17.70;86.10;;;;;;5115273;28;19951;-54
2023/03/23 09:42:00;;;;;;;;;;;17.70;86.30;;;;;;5114476;28;19924;-51
2023/03/23 09:44:31;;;;;;;;;;;17.70;85.90;;;;;;5114615;28;19912;-54
2023/03/23 09:46:57;;;;;;;;;;;17.60;85.80;;;;;;5115485;28;19912;-51
2023/03/23 09:49:28;;;;;;;;;;;17.60;85.90;;;;;;5115405;28;19908;-54
2023/03/23 09:51:54;;;;;;;;;;;17.60;85.90;;;;;;5114238;28;19922;-52
2023/03/23 09:54:31;;;;;;;;;;;17.60;86.10;;;;;;5114810;28;19998;-54
2023/03/23 09:56:58;;;;;;;;;;;17.60;85.90;;;;;;5115186;28;19918;-51
2023/03/23 09:59:39;;;;;;;;;;;17.60;85.90;;;;;;5115615;28;19908;-55
2023/03/23 10:02:08;;;;;;;;;;;17.60;85.90;;;;;;5114527;28;19919;-55
2023/03/23 10:04:34;;;;;;;;;;;17.60;85.90;;;;;;5114010;28;19981;-51
2023/03/23 10:07:06;;;;;;;;;;;17.60;86.10;;;;;;5114916;28;19914;-55
2023/03/23 10:09:31;;;;;;;;;;;17.60;85.90;;;;;;5115093;28;19954;-53
2023/03/23 10:12:21;;;;;;;;;;;17.60;86.00;;;;;;5114133;28;19947;-54
2023/03/23 10:14:47;;;;;;;;;;;17.60;86.00;;;;;;5114751;28;20365;-53
2023/03/23 10:17:14;;;;;;;;;;;17.60;86.00;;;;;;5114632;28;19943;-55
2023/03/23 10:19:49;;;;;;;;;;;17.60;86.00;;;;;;5114827;28;20391;-56
2023/03/23 10:22:19;;;;;;;;;;;17.60;86.10;;;;;;5113705;28;19907;-55
2023/03/23 10:24:54;;;;;;;;;;;17.60;86.00;;;;;;5114822;28;20246;-53
2023/03/23 10:27:29;;;;;;;;;;;17.60;86.10;;;;;;5114562;28;19916;-55
2023/03/23 10:30:05;;;;;;;;;;;17.60;86.10;;;;;;5114587;28;19908;-54
2023/03/23 10:32:40;;;;;;;;;;;17.60;86.10;;;;;;5113221;28;19912;-51
2023/03/23 10:35:09;;;;;;;;;;;17.60;86.10;;;;;;5114486;28;19998;-51
2023/03/23 10:37:38;;;;;;;;;;;17.60;86.00;;;;;;5114311;28;19908;-50
2023/03/23 10:40:10;;;;;;;;;;;17.60;86.00;;;;;;5113756;28;19908;-51
2023/03/23 10:42:38;;;;;;;;;;;17.60;86.00;;;;;;5093805;28;20375;-55
2023/03/23 10:45:13;;;;;;;;;;;17.60;86.20;;;;;;5093081;28;20247;-52
2023/03/23 10:47:40;;;;;;;;;;;17.60;86.10;;;;;;5093983;28;19916;-55
2023/03/23 10:50:11;;;;;;;;;;;17.60;86.20;;;;;;5093888;28;19909;-54
2023/03/23 10:52:41;;;;;;;;;;;17.60;86.20;;;;;;5111396;28;20057;-52
2023/03/23 10:55:08;;;;;;;;;;;17.50;86.10;;;;;;5114080;28;20010;-55
2023/03/23 10:57:35;;;;;;;;;;;17.60;86.20;;;;;;5114286;28;19914;-56
2023/03/23 11:00:06;;;;;;;;;;;17.60;86.20;;;;;;5114425;28;19953;-55
2023/03/23 11:02:31;;;;;;;;;;;17.60;86.20;;;;;;5113223;28;20259;-55
2023/03/23 11:04:59;;;;;;;;;;;17.50;86.20;;;;;;5114276;28;19961;-54
2023/03/23 11:07:28;;;;;;;;;;;17.50;86.30;;;;;;5113834;28;19908;-53
2023/03/23 11:09:55;;;;;;;;;;;17.50;86.30;;;;;;5114127;28;19912;-52
2023/03/23 11:12:22;;;;;;;;;;;17.50;86.40;;;;;;5112658;28;19918;-53
2023/03/23 11:14:48;;;;;;;;;;;17.50;86.40;;;;;;5114030;28;19965;-54
2023/03/23 11:17:22;;;;;;;;;;;17.50;86.40;;;;;;5095571;28;20343;-56
2023/03/23 11:19:48;;;;;;;;;;;17.50;86.40;;;;;;5113920;28;19947;-54
2023/03/23 11:22:17;;;;;;;;;;;17.50;86.50;;;;;;5113058;28;19951;-51
2023/03/23 11:24:44;;;;;;;;;;;17.50;86.50;;;;;;5113946;28;19998;-53
2023/03/23 11:27:10;;;;;;;;;;;17.50;86.50;;;;;;5113479;28;20389;-54
2023/03/23 11:29:41;;;;;;;;;;;17.50;86.60;;;;;;5114048;28;19908;-53
2023/03/23 11:32:09;;;;;;;;;;;17.50;86.60;;;;;;5112902;28;19976;-52
2023/03/23 11:34:39;;;;;;;;;;;17.50;86.60;;;;;;5111902;28;20087;-55
2023/03/23 11:37:07;;;;;;;;;;;17.50;86.60;;;;;;5112812;28;19919;-55
2023/03/23 11:39:32;;;;;;;;;;;17.50;86.70;;;;;;5113457;28;19953;-53
2023/03/23 11:41:59;;;;;;;;;;;17.50;86.70;;;;;;5114092;28;20340;-53
2023/03/23 11:44:31;;;;;;;;;;;17.50;86.80;;;;;;5113722;28;19965;-54
2023/03/23 11:47:16;;;;;;;;;;;17.50;86.80;;;;;;5113113;28;19937;-54
2023/03/23 11:49:47;;;;;;;;;;;17.50;86.80;;;;;;5113547;28;20006;-52
2023/03/23 11:52:31;;;;;;;;;;;17.50;86.80;;;;;;5113985;28;20363;-55
2023/03/23 11:55:02;;;;;;;;;;;17.40;86.80;;;;;;5112880;28;19915;-51
2023/03/23 11:57:30;;;;;;;;;;;17.40;86.80;;;;;;5113703;28;19908;-56
2023/03/23 12:00:00;;;;;;;;;;;17.50;86.80;;;;;;5113747;28;20354;-54
2023/03/23 12:02:32;;;;;;;;;;;17.50;86.70;;;;;;5113725;28;19907;-55
2023/03/23 12:05:16;;;;;;;;;;;17.50;86.70;;;;;;5115928;28;20262;-56
2023/03/23 12:07:47;;;;;;;;;;;17.50;86.60;;;;;;5117205;28;20037;-54
2023/03/23 12:10:15;;;;;;;;;;;17.50;86.60;;;;;;5117419;28;19915;-54
2023/03/23 12:12:55;;;;;;;;;;;17.50;86.70;;;;;;5117503;28;19911;-54
2023/03/23 12:15:36;;;;;;;;;;;17.50;86.60;;;;;;5117008;28;20395;-56
2023/03/23 12:18:20;;;;;;;;;;;17.50;86.60;;;;;;5116470;28;19912;-54
2023/03/23 12:21:05;;;;;;;;;;;17.50;86.80;;;;;;5116819;28;19990;-55
2023/03/23 12:23:41;;;;;;;;;;;17.50;86.80;;;;;;5117021;28;20360;-55
2023/03/23 12:26:28;;;;;;;;;;;17.50;86.80;;;;;;5115876;28;19970;-54
2023/03/23 12:29:17;;;;;;;;;;;17.50;86.90;;;;;;5116774;28;20011;-54
2023/03/23 12:31:45;;;;;;;;;;;17.60;86.90;;;;;;5117008;28;19915;-55
2023/03/23 12:34:27;;;;;;;;;;;17.70;86.90;;;;;;5115712;28;19969;-54
2023/03/23 12:36:52;;;;;;;;;;;17.80;86.80;;;;;;5116715;28;19952;-52
2023/03/23 12:39:24;;;;;;;;;;;17.80;86.50;;;;;;5116471;28;19911;-55
2023/03/23 12:41:49;;;;;;;;;;;18.00;86.30;;;;;;5116648;28;19920;-53
2023/03/23 12:44:18;;;;;;;;;;;18.20;85.90;;;;;;5097743;28;19912;-54
2023/03/23 12:46:44;;;;;;;;;;;18.40;85.40;;;;;;5116697;28;19912;-52
2023/03/23 12:49:11;;;;;;;;;;;18.50;84.90;;;;;;5116226;28;19981;-50
2023/03/23 12:51:40;;;;;;;;;;;18.80;84.40;;;;;;5116300;28;19912;-53
2023/03/23 12:54:14;;;;;;;;;;;18.90;83.70;;;;;;5116432;28;19912;-55
2023/03/23 12:57:01;;;;;;;;;;;19.10;83.30;;;;;;5115078;28;20374;-51
2023/03/23 12:59:46;;;;;;;;;;;19.30;82.80;;;;;;5115953;28;19916;-53
2023/03/23 13:02:18;;;;;;;;;;;19.40;82.40;;;;;;5116459;28;19908;-52
2023/03/23 13:04:45;;;;;;;;;;;19.50;82.10;;;;;;5116368;28;20006;-54
2023/03/23 13:07:16;;;;;;;;;;;19.60;81.90;;;;;;5115195;28;19907;-55
2023/03/23 13:09:57;;;;;;;;;;;19.60;81.60;;;;;;5116297;28;19950;-53
2023/03/23 13:12:24;;;;;;;;;;;19.70;82.10;;;;;;5115842;28;19912;-53
2023/03/23 13:14:55;;;;;;;;;;;19.80;81.40;;;;;;5115637;28;19912;-55
2023/03/23 13:17:26;;;;;;;;;;;19.80;81.30;;;;;;5115077;28;19960;-54
2023/03/23 13:20:12;;;;;;;;;;;19.80;81.10;;;;;;5116012;28;19911;-54
2023/03/23 13:23:06;;;;;;;;;;;19.80;81.10;;;;;;5115580;28;20358;-53
2023/03/23 13:25:34;;;;;;;;;;;19.90;81.00;;;;;;5112911;28;19912;-55
2023/03/23 13:28:01;;;;;;;;;;;20.00;80.90;;;;;;5115166;28;19935;-53
2023/03/23 13:30:28;;;;;;;;;;;20.00;80.70;;;;;;5115554;28;20004;-54
2023/03/23 13:33:02;;;;;;;;;;;20.00;80.60;;;;;;5115470;28;19912;-54
2023/03/23 13:35:33;;;;;;;;;;;20.10;80.50;;;;;;5114354;28;19911;-56
2023/03/23 13:37:58;;;;;;;;;;;20.20;80.40;;;;;;5115464;28;19916;-52
2023/03/23 13:40:27;;;;;;;;;;;20.20;80.30;;;;;;5115212;28;19923;-56
2023/03/23 13:42:57;;;;;;;;;;;20.20;80.20;;;;;;5114803;28;20341;-53
2023/03/23 13:45:23;;;;;;;;;;;20.30;80.20;;;;;;5115243;28;20381;-52
2023/03/23 13:47:50;;;;;;;;;;;20.20;80.10;;;;;;5115295;28;19962;-55
2023/03/23 13:50:17;;;;;;;;;;;20.20;80.20;;;;;;5114974;28;20266;-55
2023/03/23 13:52:45;;;;;;;;;;;20.10;80.20;;;;;;5115153;28;20026;-56
2023/03/23 13:55:20;;;;;;;;;;;20.10;80.30;;;;;;5114080;28;20007;-53
2023/03/23 13:57:53;;;;;;;;;;;20.00;80.40;;;;;;5115232;28;19908;-54
2023/03/23 14:00:44;;;;;;;;;;;20.00;80.60;;;;;;5114710;28;20320;-52
2023/03/23 14:03:09;;;;;;;;;;;19.90;80.90;;;;;;5114606;28;20299;-56
2023/03/23 14:05:39;;;;;;;;;;;19.80;81.00;;;;;;5113578;28;19919;-53
2023/03/23 14:08:07;;;;;;;;;;;19.80;81.20;;;;;;5115011;28;20269;-54
2023/03/23 14:10:34;;;;;;;;;;;19.70;81.30;;;;;;5096518;28;19907;-55
2023/03/23 14:13:01;;;;;;;;;;;19.70;81.40;;;;;;5114615;28;19938;-52
2023/03/23 14:15:31;;;;;;;;;;;19.70;81.50;;;;;;5095716;28;20302;-54
2023/03/23 14:17:57;;;;;;;;;;;19.70;81.50;;;;;;5114350;28;19915;-53
2023/03/23 14:20:29;;;;;;;;;;;19.70;81.50;;;;;;5114144;28;20318;-56
2023/03/23 14:22:55;;;;;;;;;;;19.70;81.50;;;;;;5114590;28;19957;-56